createdAt,value
2019-04-07T00:02:17.915Z,59.33
2019-04-07T00:04:44.224Z,58.40
2019-04-07T00:07:12.058Z,54.73
2019-04-07T00:09:38.729Z,54.23
2019-04-07T00:12:04.983Z,57.40
2019-04-07T00:14:31.763Z,60.27
2019-04-07T00:16:58.007Z,55.10
2019-04-07T00:19:24.161Z,57.03
2019-04-07T00:21:50.334Z,54.07
2019-04-07T00:24:16.663Z,55.03
2019-04-07T00:26:43.135Z,55.37
2019-04-07T00:29:09.738Z,54.77
2019-04-07T00:31:36.027Z,55.60
2019-04-07T00:34:02.806Z,56.60
2019-04-07T00:36:29.640Z,54.60
2019-04-07T00:38:56.205Z,53.00
2019-04-07T00:41:22.436Z,52.37
2019-04-07T00:43:48.579Z,55.53
2019-04-07T00:46:15.237Z,54.40
2019-04-07T00:48:42.338Z,50.43
2019-04-07T00:51:08.667Z,53.57
2019-04-07T00:53:35.286Z,53.47
2019-04-07T00:56:02.866Z,53.77
2019-04-07T00:58:29.164Z,51.10
2019-04-07T01:00:55.312Z,53.77
2019-04-07T01:03:21.471Z,56.20
2019-04-07T01:05:47.941Z,52.97
2019-04-07T01:08:14.146Z,58.60
2019-04-07T01:10:40.541Z,52.90
2019-04-07T01:13:06.870Z,53.33
2019-04-07T01:15:33.130Z,53.23
2019-04-07T01:17:59.962Z,56.60
2019-04-07T01:20:26.242Z,52.53
2019-04-07T01:22:52.778Z,56.00
2019-04-07T01:25:19.353Z,59.53
2019-04-07T01:27:45.578Z,56.67
2019-04-07T01:30:12.331Z,54.87
2019-04-07T01:32:38.780Z,56.57
2019-04-07T01:35:06.348Z,56.43
2019-04-07T01:37:33.274Z,57.77
2019-04-07T01:39:59.414Z,55.60
2019-04-07T01:42:39.801Z,52.47
2019-04-07T01:45:08.533Z,57.60
2019-04-07T01:47:52.971Z,54.77
2019-04-07T01:50:27.390Z,55.00
2019-04-07T01:53:01.288Z,56.37
2019-04-07T01:55:35.747Z,54.73
2019-04-07T01:58:12.633Z,55.00
2019-04-07T02:00:40.701Z,57.50
2019-04-07T02:03:08.779Z,61.00
2019-04-07T02:05:39.606Z,57.40
2019-04-07T02:08:07.793Z,56.27
2019-04-07T02:10:39.569Z,55.27
2019-04-07T02:13:24.431Z,57.53
2019-04-07T02:15:56.037Z,53.80
2019-04-07T02:18:41.086Z,57.50
2019-04-07T02:21:09.708Z,62.70
2019-04-07T02:23:55.951Z,59.00
2019-04-07T02:26:39.090Z,56.33
2019-04-07T02:29:07.199Z,58.83
2019-04-07T02:31:47.377Z,57.50
2019-04-07T02:34:27.979Z,57.63
2019-04-07T02:37:13.981Z,57.57
2019-04-07T02:39:42.383Z,57.07
2019-04-07T02:42:13.610Z,59.30
2019-04-07T02:44:50.875Z,58.60
2019-04-07T02:47:22.598Z,58.57
2019-04-07T02:49:54.089Z,57.00
2019-04-07T02:52:39.096Z,57.47
2019-04-07T02:55:11.716Z,57.70
2019-04-07T02:57:40.416Z,54.47
2019-04-07T03:00:26.385Z,58.30
2019-04-07T03:02:55.806Z,59.27
2019-04-07T03:05:29.936Z,58.77
2019-04-07T03:08:08.634Z,56.33
2019-04-07T03:10:48.651Z,56.67
2019-04-07T03:13:19.335Z,58.47
2019-04-07T03:15:52.688Z,54.80
2019-04-07T03:18:25.248Z,58.17
2019-04-07T03:20:59.393Z,57.73
2019-04-07T03:23:33.399Z,55.67
2019-04-07T03:26:20.582Z,55.63
2019-04-07T03:29:05.363Z,57.63
2019-04-07T03:31:40.890Z,54.03
2019-04-07T03:34:15.142Z,52.77
2019-04-07T03:37:20.320Z,58.80
2019-04-07T03:39:35.947Z,56.40
2019-04-07T03:42:10.647Z,55.30
2019-04-07T03:44:47.809Z,54.77
2019-04-07T03:47:16.421Z,57.13
2019-04-07T03:49:45.633Z,52.23
2019-04-07T03:52:15.716Z,54.37
2019-04-07T03:54:52.798Z,55.97
2019-04-07T03:57:29.989Z,57.53
2019-04-07T03:59:58.229Z,55.13
2019-04-07T04:02:29.362Z,51.77
2019-04-07T04:04:57.803Z,51.93
2019-04-07T04:07:32.271Z,54.60
2019-04-07T04:09:58.525Z,51.33
2019-04-07T04:12:29.957Z,52.00
2019-04-07T04:14:58.867Z,53.20
2019-04-07T04:17:27.033Z,55.60
2019-04-07T04:19:53.386Z,53.67
2019-04-07T04:22:19.512Z,51.53
2019-04-07T04:24:45.674Z,55.17
2019-04-07T04:27:12.731Z,52.90
2019-04-07T04:29:39.393Z,54.63
2019-04-07T04:32:05.929Z,53.13
2019-04-07T04:34:32.940Z,53.43
2019-04-07T04:36:59.887Z,55.97
2019-04-07T04:39:26.338Z,55.27
2019-04-07T04:41:52.475Z,54.80
2019-04-07T04:44:18.747Z,50.33
2019-04-07T04:46:45.331Z,54.37
2019-04-07T04:49:11.843Z,56.20
2019-04-07T04:51:39.396Z,53.50
2019-04-07T04:54:07.154Z,58.53
2019-04-07T04:56:33.729Z,56.93
2019-04-07T04:58:59.904Z,55.97
2019-04-07T05:01:26.583Z,54.53
2019-04-07T05:03:53.866Z,55.37
2019-04-07T05:06:21.006Z,58.93
2019-04-07T05:08:47.237Z,59.27
2019-04-07T05:11:13.506Z,58.77
2019-04-07T05:13:39.767Z,56.27
2019-04-07T05:16:05.930Z,59.37
2019-04-07T05:18:32.356Z,61.43
2019-04-07T05:20:59.791Z,62.70
2019-04-07T05:23:26.016Z,55.33
2019-04-07T05:25:52.292Z,56.07
2019-04-07T05:28:19.173Z,57.33
2019-04-07T05:30:45.452Z,58.30
2019-04-07T05:33:12.120Z,58.37
2019-04-07T05:35:38.369Z,60.07
2019-04-07T05:38:06.610Z,64.47
2019-04-07T05:40:32.630Z,64.57
2019-04-07T05:42:59.854Z,62.90
2019-04-07T05:45:26.982Z,58.27
2019-04-07T05:47:54.281Z,56.60
2019-04-07T05:50:21.073Z,60.53
2019-04-07T05:52:47.653Z,58.40
2019-04-07T05:55:14.264Z,58.80
2019-04-07T05:57:40.605Z,58.80
2019-04-07T06:00:13.525Z,61.87
2019-04-07T06:02:37.832Z,61.35
2019-04-07T06:05:05.322Z,64.22
2019-04-07T06:07:34.853Z,58.10
2019-04-07T06:10:00.056Z,64.63
2019-04-07T06:12:27.043Z,60.47
2019-04-07T06:14:53.447Z,68.63
2019-04-07T06:17:21.085Z,59.23
2019-04-07T06:19:47.402Z,62.50
2019-04-07T06:22:17.457Z,60.43
2019-04-07T06:24:42.056Z,62.67
2019-04-07T06:27:08.803Z,64.60
2019-04-07T06:29:35.528Z,58.33
2019-04-07T06:32:03.606Z,60.20
2019-04-07T06:34:29.995Z,57.93
2019-04-07T06:36:56.527Z,57.73
2019-04-07T06:39:23.231Z,59.33
2019-04-07T06:41:49.495Z,57.43
2019-04-07T06:44:19.404Z,53.93
2019-04-07T06:46:49.203Z,54.37
2019-04-07T06:49:20.602Z,53.10
2019-04-07T06:51:52.712Z,54.73
2019-04-07T06:54:26.387Z,55.37
2019-04-07T06:57:12.245Z,55.00
2019-04-07T06:59:52.788Z,54.77
2019-04-07T07:02:37.989Z,51.40
2019-04-07T07:05:06.218Z,52.13
2019-04-07T07:07:40.166Z,50.43
2019-04-07T07:10:28.138Z,46.70
2019-04-07T07:12:53.358Z,46.90
2019-04-07T07:15:21.673Z,47.50
2019-04-07T07:17:51.905Z,48.60
2019-04-07T07:20:30.430Z,46.87
2019-04-07T07:23:09.868Z,44.33
2019-04-07T07:25:36.336Z,43.60
2019-04-07T07:28:03.274Z,45.90
2019-04-07T07:30:29.966Z,45.73
2019-04-07T07:32:56.475Z,43.67
2019-04-07T07:35:23.453Z,43.53
2019-04-07T07:37:50.040Z,42.70
2019-04-07T07:40:18.392Z,42.17
2019-04-07T07:42:46.103Z,41.43
2019-04-07T07:45:13.980Z,42.37
2019-04-07T07:47:40.287Z,42.47
2019-04-07T07:50:07.791Z,42.10
2019-04-07T07:52:35.144Z,40.03
2019-04-07T07:55:02.744Z,40.23
2019-04-07T07:57:29.192Z,41.80
2019-04-07T07:59:55.370Z,40.90
2019-04-07T08:02:21.964Z,39.63
2019-04-07T08:04:48.747Z,39.87
2019-04-07T08:07:16.341Z,40.73
2019-04-07T08:09:43.576Z,37.57
2019-04-07T08:12:10.302Z,37.20
2019-04-07T08:14:37.112Z,35.90
2019-04-07T08:17:04.114Z,36.23
2019-04-07T08:19:31.720Z,36.37
2019-04-07T08:21:58.448Z,36.63
2019-04-07T08:24:24.813Z,36.80
2019-04-07T08:26:50.964Z,36.40
2019-04-07T08:29:17.837Z,35.53
2019-04-07T08:31:44.844Z,35.67
2019-04-07T08:34:11.184Z,35.50
2019-04-07T08:36:38.071Z,35.20
2019-04-07T08:39:07.258Z,34.53
2019-04-07T08:41:33.699Z,34.77
2019-04-07T08:44:00.186Z,34.20
2019-04-07T08:46:30.642Z,31.03
2019-04-07T08:48:58.244Z,29.87
2019-04-07T08:51:24.944Z,29.13
2019-04-07T08:53:51.824Z,28.03
2019-04-07T08:56:18.668Z,27.50
2019-04-07T08:58:44.835Z,27.43
2019-04-07T09:01:11.037Z,27.83
2019-04-07T09:03:37.430Z,26.03
2019-04-07T09:06:04.562Z,25.53
2019-04-07T09:08:34.675Z,27.13
2019-04-07T09:11:13.197Z,24.53
2019-04-07T09:13:41.437Z,24.70
2019-04-07T09:16:13.591Z,24.90
2019-04-07T09:19:01.867Z,23.87
2019-04-07T09:21:38.029Z,21.43
2019-04-07T09:23:57.818Z,21.77
2019-04-07T09:26:32.092Z,22.90
2019-04-07T09:29:06.473Z,21.90
2019-04-07T09:31:52.971Z,20.93
2019-04-07T09:34:37.988Z,18.93
2019-04-07T09:37:12.021Z,20.20
2019-04-07T09:40:00.779Z,18.27
2019-04-07T09:42:43.603Z,17.93
2019-04-07T09:45:18.450Z,17.27
2019-04-07T09:47:48.388Z,17.03
2019-04-07T09:50:32.349Z,16.90
2019-04-07T09:53:00.546Z,16.17
2019-04-07T09:55:41.120Z,16.63
2019-04-07T09:58:26.286Z,15.40
2019-04-07T10:01:05.778Z,16.27
2019-04-07T10:03:38.160Z,14.23
2019-04-07T10:06:11.769Z,14.50
2019-04-07T10:08:56.519Z,15.17
2019-04-07T10:11:25.212Z,14.20
2019-04-07T10:13:53.506Z,13.83
2019-04-07T10:16:40.646Z,13.10
2019-04-07T10:19:25.773Z,14.87
2019-04-07T10:21:56.983Z,14.23
2019-04-07T10:24:43.751Z,14.87
2019-04-07T10:27:29.728Z,14.43
2019-04-07T10:29:58.031Z,14.60
2019-04-07T10:32:28.709Z,15.93
2019-04-07T10:35:02.581Z,14.07
2019-04-07T10:37:31.693Z,13.40
2019-04-07T10:40:19.501Z,14.97
2019-04-07T10:42:50.222Z,13.10
2019-04-07T10:45:18.339Z,14.87
2019-04-07T10:47:56.714Z,14.63
2019-04-07T10:50:41.375Z,15.27
2019-04-07T10:53:09.642Z,14.37
2019-04-07T10:55:40.641Z,14.30
2019-04-07T10:58:20.797Z,13.13
2019-04-07T11:00:51.487Z,12.60
2019-04-07T11:03:19.771Z,14.27
2019-04-07T11:05:53.793Z,15.07
2019-04-07T11:08:40.010Z,15.27
2019-04-07T11:11:10.889Z,15.30
2019-04-07T11:13:42.288Z,13.23
2019-04-07T11:16:13.421Z,13.93
2019-04-07T11:18:41.498Z,14.00
2019-04-07T11:21:28.223Z,15.10
2019-04-07T11:24:11.282Z,13.20
2019-04-07T11:26:46.172Z,12.63
2019-04-07T11:29:14.440Z,13.00
2019-04-07T11:31:43.958Z,12.53
2019-04-07T11:34:23.903Z,12.77
2019-04-07T11:36:54.980Z,12.47
2019-04-07T11:39:32.640Z,12.53
2019-04-07T11:42:06.423Z,13.27
2019-04-07T11:44:35.643Z,13.30
2019-04-07T11:47:20.744Z,12.90
2019-04-07T11:49:49.632Z,12.87
2019-04-07T11:52:17.997Z,12.47
2019-04-07T11:54:49.282Z,11.80
2019-04-07T11:57:34.060Z,12.33
2019-04-07T12:00:12.302Z,12.87
2019-04-07T12:02:56.885Z,12.33
2019-04-07T12:05:25.112Z,13.90
2019-04-07T12:07:58.172Z,11.60
2019-04-07T12:10:54.152Z,13.03
2019-04-07T12:13:24.022Z,12.77
2019-04-07T12:16:10.238Z,12.03
2019-04-07T12:18:41.218Z,12.83
2019-04-07T12:21:19.418Z,11.60
2019-04-07T12:23:45.019Z,12.37
2019-04-07T12:26:30.225Z,13.57
2019-04-07T12:29:04.365Z,12.40
2019-04-07T12:31:37.954Z,11.60
2019-04-07T12:34:12.198Z,13.20
2019-04-07T12:36:38.658Z,11.73
2019-04-07T12:39:22.453Z,11.93
2019-04-07T12:41:58.074Z,14.00
2019-04-07T12:44:26.534Z,12.77
2019-04-07T12:46:58.196Z,12.87
2019-04-07T12:49:29.856Z,13.00
2019-04-07T12:51:57.960Z,12.90
2019-04-07T12:54:26.711Z,12.83
2019-04-07T12:57:08.460Z,12.97
2019-04-07T12:59:37.521Z,11.83
2019-04-07T13:02:12.509Z,12.80
2019-04-07T13:04:46.417Z,14.77
2019-04-07T13:07:17.119Z,13.10
2019-04-07T13:09:47.118Z,15.33
2019-04-07T13:12:28.970Z,14.93
2019-04-07T13:15:08.546Z,13.83
2019-04-07T13:17:37.969Z,14.37
2019-04-07T13:20:23.414Z,13.67
2019-04-07T13:23:00.353Z,12.63
2019-04-07T13:25:37.454Z,16.30
2019-04-07T13:28:14.219Z,13.77
2019-04-07T13:31:00.574Z,13.10
2019-04-07T13:33:41.369Z,13.73
2019-04-07T13:36:26.838Z,13.83
2019-04-07T13:38:55.756Z,14.53
2019-04-07T13:41:24.080Z,14.07
2019-04-07T13:43:52.791Z,15.20
2019-04-07T13:46:36.219Z,13.83
2019-04-07T13:49:04.397Z,14.30
2019-04-07T13:51:36.520Z,14.77
2019-04-07T13:54:17.808Z,14.57
2019-04-07T13:56:55.828Z,14.07
2019-04-07T13:59:24.609Z,13.73
2019-04-07T14:01:55.659Z,13.03
2019-04-07T14:04:39.215Z,14.27
2019-04-07T14:07:10.029Z,14.70
2019-04-07T14:09:47.415Z,14.83
2019-04-07T14:12:21.643Z,16.00
2019-04-07T14:14:49.986Z,14.13
2019-04-07T14:17:27.331Z,15.43
2019-04-07T14:20:08.812Z,16.70
2019-04-07T14:22:46.551Z,15.37
2019-04-07T14:25:15.529Z,15.27
2019-04-07T14:27:43.757Z,15.20
2019-04-07T14:30:14.693Z,14.93
2019-04-07T14:32:50.736Z,14.87
2019-04-07T14:35:19.491Z,14.80
2019-04-07T14:37:53.255Z,16.20
2019-04-07T14:40:21.452Z,16.10
2019-04-07T14:42:49.656Z,16.20
2019-04-07T14:45:21.172Z,15.27
2019-04-07T14:47:59.239Z,15.53
2019-04-07T14:50:42.818Z,17.73
2019-04-07T14:53:14.245Z,15.47
2019-04-07T14:55:54.619Z,15.93
2019-04-07T14:58:34.767Z,15.63
2019-04-07T15:01:21.418Z,15.00
2019-04-07T15:03:48.052Z,16.13
2019-04-07T15:06:14.266Z,15.03
2019-04-07T15:08:48.451Z,15.70
2019-04-07T15:11:28.094Z,15.70
2019-04-07T15:13:57.259Z,15.47
2019-04-07T15:16:22.829Z,15.50
2019-04-07T15:18:48.988Z,14.93
2019-04-07T15:21:15.640Z,15.73
2019-04-07T15:23:45.000Z,15.30
2019-04-07T15:26:12.015Z,15.60
2019-04-07T15:28:38.452Z,14.30
2019-04-07T15:31:04.639Z,15.23
2019-04-07T15:33:33.636Z,15.70
2019-04-07T15:35:58.953Z,15.40
2019-04-07T15:38:27.151Z,14.97
2019-04-07T15:40:53.498Z,17.93
2019-04-07T15:43:19.959Z,16.13
2019-04-07T15:45:46.892Z,17.37
2019-04-07T15:48:13.680Z,15.63
2019-04-07T15:50:39.947Z,16.67
2019-04-07T15:53:06.164Z,15.60
2019-04-07T15:55:45.892Z,15.40
2019-04-07T15:58:02.001Z,16.00
2019-04-07T16:00:28.403Z,16.03
2019-04-07T16:02:54.906Z,15.80
2019-04-07T16:05:21.576Z,15.17
2019-04-07T16:07:48.143Z,16.10
2019-04-07T16:10:14.604Z,15.20
2019-04-07T16:12:46.521Z,15.43
2019-04-07T16:15:09.660Z,15.17
2019-04-07T16:17:37.189Z,16.27
2019-04-07T16:20:19.839Z,17.83
2019-04-07T16:22:36.686Z,16.53
2019-04-07T16:25:08.130Z,15.77
2019-04-07T16:27:36.577Z,15.90
2019-04-07T16:30:10.407Z,15.73
2019-04-07T16:32:37.614Z,15.73
2019-04-07T16:35:06.254Z,15.87
2019-04-07T16:37:32.394Z,18.20
2019-04-07T16:39:58.559Z,17.27
2019-04-07T16:42:25.436Z,18.43
2019-04-07T16:44:52.582Z,16.23
2019-04-07T16:47:23.240Z,17.03
2019-04-07T16:49:48.638Z,15.97
2019-04-07T16:52:15.502Z,16.60
2019-04-07T16:54:43.755Z,16.27
2019-04-07T16:57:10.515Z,17.90
2019-04-07T16:59:40.728Z,17.80
2019-04-07T17:02:05.153Z,15.80
2019-04-07T17:04:32.220Z,17.43
2019-04-07T17:07:03.424Z,16.37
2019-04-07T17:09:28.436Z,15.50
2019-04-07T17:11:54.786Z,16.33
2019-04-07T17:14:20.928Z,15.90
2019-04-07T17:16:48.340Z,15.50
2019-04-07T17:19:15.088Z,18.20
2019-04-07T17:21:42.839Z,16.57
2019-04-07T17:24:09.421Z,17.67
2019-04-07T17:26:38.361Z,16.17
2019-04-07T17:29:04.369Z,17.97
2019-04-07T17:31:32.199Z,17.23
2019-04-07T17:33:59.003Z,18.70
2019-04-07T17:36:25.169Z,16.87
2019-04-07T17:38:56.357Z,16.37
2019-04-07T17:41:23.382Z,15.87
2019-04-07T17:44:13.075Z,17.37
2019-04-07T17:46:39.577Z,16.50
2019-04-07T17:49:11.082Z,16.17
2019-04-07T17:51:42.197Z,16.20
2019-04-07T17:54:17.440Z,16.80
2019-04-07T17:56:43.243Z,16.63
2019-04-07T17:59:14.325Z,15.70
2019-04-07T18:01:47.310Z,15.87
2019-04-07T18:04:33.973Z,16.73
2019-04-07T18:07:06.137Z,18.43
2019-04-07T18:09:40.608Z,16.80
2019-04-07T18:12:27.609Z,17.10
2019-04-07T18:15:12.525Z,15.23
2019-04-07T18:17:46.007Z,17.83
2019-04-07T18:20:31.504Z,16.83
2019-04-07T18:23:16.562Z,15.43
2019-04-07T18:25:53.462Z,17.90
2019-04-07T18:28:39.100Z,16.83
2019-04-07T18:31:23.807Z,17.57
2019-04-07T18:34:04.372Z,17.43
2019-04-07T18:36:36.981Z,18.70
2019-04-07T18:39:26.019Z,18.67
2019-04-07T18:41:55.033Z,17.90
2019-04-07T18:44:29.486Z,18.70
2019-04-07T18:47:15.381Z,18.33
2019-04-07T18:49:52.385Z,19.77
2019-04-07T18:52:25.736Z,18.60
2019-04-07T18:55:10.213Z,21.47
2019-04-07T18:57:56.298Z,18.80
2019-04-07T19:00:41.410Z,17.77
2019-04-07T19:03:10.595Z,18.60
2019-04-07T19:05:52.991Z,19.77
2019-04-07T19:08:28.155Z,18.50
2019-04-07T19:11:12.325Z,19.73
2019-04-07T19:13:42.446Z,22.87
2019-04-07T19:16:13.508Z,20.07
2019-04-07T19:18:41.529Z,21.77
2019-04-07T19:21:25.351Z,20.70
2019-04-07T19:23:53.921Z,21.20
2019-04-07T19:26:24.731Z,20.63
2019-04-07T19:28:53.918Z,21.33
2019-04-07T19:31:28.097Z,22.23
2019-04-07T19:34:13.822Z,20.37
2019-04-07T19:36:47.202Z,19.93
2019-04-07T19:39:14.793Z,24.13
2019-04-07T19:41:45.781Z,22.97
2019-04-07T19:44:16.655Z,24.27
2019-04-07T19:46:44.162Z,22.17
2019-04-07T19:49:15.210Z,22.77
2019-04-07T19:51:42.487Z,23.90
2019-04-07T19:54:27.701Z,23.60
2019-04-07T19:56:58.387Z,24.10
2019-04-07T19:59:32.339Z,23.80
2019-04-07T20:02:01.785Z,21.97
2019-04-07T20:04:30.637Z,22.40
2019-04-07T20:07:02.193Z,23.23
2019-04-07T20:09:48.429Z,26.33
2019-04-07T20:12:20.625Z,23.53
2019-04-07T20:15:04.405Z,23.43
2019-04-07T20:17:45.278Z,23.17
2019-04-07T20:20:19.648Z,23.77
2019-04-07T20:23:04.594Z,24.73
2019-04-07T20:25:35.744Z,24.10
2019-04-07T20:28:10.891Z,26.20
2019-04-07T20:30:39.074Z,26.03
2019-04-07T20:33:10.177Z,24.03
2019-04-07T20:35:44.755Z,23.80
2019-04-07T20:38:16.068Z,24.87
2019-04-07T20:40:56.093Z,27.13
2019-04-07T20:43:40.623Z,26.13
2019-04-07T20:46:08.994Z,25.37
2019-04-07T20:48:45.792Z,24.83
2019-04-07T20:51:20.887Z,27.30
2019-04-07T20:54:05.922Z,25.37
2019-04-07T20:56:45.816Z,25.63
2019-04-07T20:59:28.900Z,26.83
2019-04-07T21:02:12.734Z,24.43
2019-04-07T21:04:41.722Z,24.97
2019-04-07T21:07:29.777Z,26.30
2019-04-07T21:10:09.528Z,25.90
2019-04-07T21:12:37.047Z,25.60
2019-04-07T21:15:18.180Z,26.43
2019-04-07T21:17:36.523Z,27.53
2019-04-07T21:20:16.219Z,27.87
2019-04-07T21:23:02.862Z,26.73
2019-04-07T21:25:48.911Z,24.17
2019-04-07T21:28:28.964Z,25.60
2019-04-07T21:30:57.832Z,24.43
2019-04-07T21:33:26.946Z,25.10
2019-04-07T21:36:12.084Z,25.37
2019-04-07T21:38:46.110Z,27.03
2019-04-07T21:41:32.815Z,25.23
2019-04-07T21:44:17.517Z,25.80
2019-04-07T21:46:55.430Z,26.17
2019-04-07T21:49:23.931Z,29.03
2019-04-07T21:51:55.457Z,25.67
2019-04-07T21:54:23.643Z,25.73
2019-04-07T21:56:58.152Z,26.90
2019-04-07T21:59:30.780Z,25.63
2019-04-07T22:02:02.818Z,24.87
2019-04-07T22:04:40.423Z,26.57
2019-04-07T22:07:09.088Z,25.60
2019-04-07T22:09:38.617Z,26.77
2019-04-07T22:12:05.171Z,27.20
2019-04-07T22:14:31.339Z,26.10
2019-04-07T22:17:00.331Z,27.00
2019-04-07T22:19:25.969Z,28.10
2019-04-07T22:21:55.762Z,27.73
2019-04-07T22:24:20.747Z,27.40
2019-04-07T22:26:49.740Z,28.30
2019-04-07T22:29:16.107Z,30.23
2019-04-07T22:31:47.857Z,26.80
2019-04-07T22:34:15.057Z,27.77
2019-04-07T22:36:45.067Z,28.70
2019-04-07T22:39:09.541Z,28.10
2019-04-07T22:41:36.974Z,30.50
2019-04-07T22:44:05.023Z,27.43
2019-04-07T22:46:31.324Z,28.13
2019-04-07T22:48:58.745Z,26.60
2019-04-07T22:51:25.804Z,29.30
2019-04-07T22:53:55.537Z,30.17
2019-04-07T22:56:20.331Z,26.33
2019-04-07T22:58:46.583Z,30.93
2019-04-07T23:01:12.941Z,27.57
2019-04-07T23:03:39.184Z,29.50
2019-04-07T23:06:05.751Z,27.67
2019-04-07T23:08:32.621Z,27.77
2019-04-07T23:11:00.053Z,28.47
2019-04-07T23:13:26.384Z,26.03
2019-04-07T23:15:53.343Z,28.73
2019-04-07T23:18:20.932Z,27.50
2019-04-07T23:20:47.924Z,26.10
2019-04-07T23:23:14.484Z,27.33
2019-04-07T23:25:40.720Z,28.93
2019-04-07T23:28:06.959Z,28.23
2019-04-07T23:30:33.443Z,28.53
2019-04-07T23:32:59.599Z,26.43
2019-04-07T23:35:25.763Z,30.63
2019-04-07T23:37:51.929Z,31.17
2019-04-07T23:40:18.378Z,27.77
2019-04-07T23:42:44.703Z,26.97
2019-04-07T23:45:11.222Z,30.50
2019-04-07T23:47:37.377Z,29.57
2019-04-07T23:50:05.428Z,28.80
2019-04-07T23:52:31.571Z,31.57
2019-04-07T23:54:58.782Z,33.20
2019-04-07T23:57:25.042Z,30.80
2019-04-07T23:59:51.566Z,28.13
